Fruitridge, California
Current Conditions -  °F | °C
As of 6:53 PM on Saturday 20 Dec 2014 (Local Time) from KSAC Reporting Station
Overcast Overcast  
Wind Chill: 57°   Ceiling: 5000
Heat Index: 57°   Visibility: 10mi
Dew Point: 53°   Wind: 3mph
Humidity: 87%   Direction: 130°SE
Pressure: 30.23"   Gusts: NA
Location:  38.5351°N, 121.443°W
Report Text: KSAC 210253Z AUTO 13003KT 10SM OVC050 14/12 A3023 RMK AO2 RAE0159 SLP235 P0000 60000 T01390117 53005 TSNO
Loading
Personal Weather Stations






























Interactive Weather Map New forecast layout! Learn more

10-Day Weather Forecast

Advertisements
Track Severe Weather on mobile